Time;durP1;ratioP1;P1;durP2;ratioP2;P2;SDS_P1;SDS_P2;PMS_P1;PMS_P2;Temp;Humidity;BMP_temperature;BMP_pressure;BME280_temperature;BME280_humidity;BME280_pressure;Samples;Min_cycle;Max_cycle;Signal;HPM_P1;HPM_P2
2022/05/31 00:01:27;;;;;;;3.30;1.40;;;;;;;;;;5012582;28;20058;-85
2022/05/31 00:03:53;;;;;;;3.75;2.05;;;;;;;;;;5014714;28;20041;-82
2022/05/31 00:06:19;;;;;;;2.70;1.65;;;;;;;;;;5013497;28;20033;-85
2022/05/31 00:08:45;;;;;;;3.45;1.70;;;;;;;;;;5014751;28;20022;-85
2022/05/31 00:11:11;;;;;;;2.92;1.50;;;;;;;;;;5014028;28;20435;-84
2022/05/31 00:13:37;;;;;;;4.25;2.30;;;;;;;;;;5014893;28;20030;-84
2022/05/31 00:16:03;;;;;;;2.20;1.38;;;;;;;;;;4997216;28;20089;-85
2022/05/31 00:18:29;;;;;;;3.35;1.50;;;;;;;;;;4999943;28;20049;-85
2022/05/31 00:20:55;;;;;;;1.90;1.70;;;;;;;;;;5017749;28;20022;-84
2022/05/31 00:23:21;;;;;;;1.75;1.60;;;;;;;;;;5013404;28;20071;-85
2022/05/31 00:25:47;;;;;;;2.47;1.70;;;;;;;;;;5014852;28;20034;-85
2022/05/31 00:28:13;;;;;;;5.65;1.80;;;;;;;;;;5005069;28;20026;-85
2022/05/31 00:30:40;;;;;;;1.50;1.40;;;;;;;;;;4994741;28;20096;-84
2022/05/31 00:33:07;;;;;;;1.70;1.60;;;;;;;;;;5011234;28;20028;-84
2022/05/31 00:35:34;;;;;;;2.60;1.60;;;;;;;;;;5014985;28;20025;-84
2022/05/31 00:38:01;;;;;;;1.50;1.40;;;;;;;;;;5031026;28;20460;-84
2022/05/31 00:40:28;;;;;;;1.65;1.45;;;;;;;;;;5029921;28;20026;-82
2022/05/31 00:42:58;;;;;;;3.28;1.75;;;;;;;;;;5012751;28;20026;-82
2022/05/31 00:45:26;;;;;;;7.60;1.83;;;;;;;;;;5012990;28;20026;-84
2022/05/31 00:47:52;;;;;;;2.75;1.65;;;;;;;;;;5014114;28;20033;-84
2022/05/31 00:50:27;;;;;;;2.00;1.58;;;;;;;;;;5025336;28;20491;-82
2022/05/31 00:52:56;;;;;;;2.58;1.73;;;;;;;;;;5033859;28;20468;-85
2022/05/31 00:55:25;;;;;;;4.95;1.55;;;;;;;;;;5032444;28;20033;-85
2022/05/31 00:58:14;;;;;;;3.22;1.23;;;;;;;;;;5021054;28;20133;-86
2022/05/31 01:00:40;;;;;;;1.73;1.50;;;;;;;;;;5012008;28;20124;-85
2022/05/31 01:03:08;;;;;;;3.83;1.15;;;;;;;;;;4997806;28;20030;-85
2022/05/31 01:05:34;;;;;;;2.85;1.73;;;;;;;;;;4993311;28;20037;-85
2022/05/31 01:08:00;;;;;;;3.50;1.63;;;;;;;;;;4993662;28;20150;-85
2022/05/31 01:10:26;;;;;;;1.60;1.50;;;;;;;;;;5007161;28;20032;-84
2022/05/31 01:12:53;;;;;;;1.65;1.40;;;;;;;;;;5015887;28;20120;-85
2022/05/31 01:15:19;;;;;;;2.50;2.30;;;;;;;;;;5019591;28;20091;-85
2022/05/31 01:17:46;;;;;;;4.03;1.50;;;;;;;;;;5013288;28;20041;-84
2022/05/31 01:20:17;;;;;;;2.33;1.30;;;;;;;;;;5029184;28;20483;-82
2022/05/31 01:22:43;;;;;;;;;;;;;;;;;;5033454;28;20367;-84
2022/05/31 01:25:12;;;;;;;3.25;1.40;;;;;;;;;;5019754;28;19909;-84
2022/05/31 01:27:42;;;;;;;1.40;1.30;;;;;;;;;;5015314;28;20108;-82
2022/05/31 01:30:09;;;;;;;3.78;1.70;;;;;;;;;;5028552;28;20038;-85
2022/05/31 01:32:38;;;;;;;7.32;2.13;;;;;;;;;;5013725;28;20026;-85
2022/05/31 01:35:07;;;;;;;3.25;1.50;;;;;;;;;;5023649;28;20071;-84
2022/05/31 01:37:54;;;;;;;3.47;1.50;;;;;;;;;;5024697;28;20029;-84
2022/05/31 01:40:27;;;;;;;2.40;1.50;;;;;;;;;;5032907;28;20025;-85
2022/05/31 01:42:53;;;;;;;2.83;1.55;;;;;;;;;;5033647;28;20025;-83
2022/05/31 01:45:21;;;;;;;1.60;1.30;;;;;;;;;;5015282;28;20150;-85
2022/05/31 01:47:47;;;;;;;2.00;1.50;;;;;;;;;;5011983;28;20036;-85
2022/05/31 01:50:15;;;;;;;7.00;1.60;;;;;;;;;;5012886;28;20065;-84
2022/05/31 01:52:42;;;;;;;3.38;1.55;;;;;;;;;;5013098;28;20476;-85
2022/05/31 01:55:09;;;;;;;2.03;1.33;;;;;;;;;;5013196;28;20030;-84
2022/05/31 01:57:36;;;;;;;5.13;1.45;;;;;;;;;;5013620;28;20084;-84
2022/05/31 02:00:07;;;;;;;1.38;1.10;;;;;;;;;;5012817;28;20029;-84
2022/05/31 02:02:33;;;;;;;;;;;;;;;;;;5013916;28;20030;-84
2022/05/31 02:04:59;;;;;;;2.47;1.35;;;;;;;;;;5012075;28;20430;-85
2022/05/31 02:07:26;;;;;;;1.63;1.33;;;;;;;;;;5013849;28;20057;-84
2022/05/31 02:09:53;;;;;;;4.07;1.33;;;;;;;;;;5013943;28;20026;-84
2022/05/31 02:12:19;;;;;;;1.35;1.23;;;;;;;;;;5015161;28;20045;-83
2022/05/31 02:14:45;;;;;;;2.38;1.40;;;;;;;;;;5014279;28;20029;-84
2022/05/31 02:17:11;;;;;;;1.20;1.08;;;;;;;;;;5013716;28;20026;-83
2022/05/31 02:19:38;;;;;;;1.65;1.50;;;;;;;;;;5026202;28;20439;-82
2022/05/31 02:22:06;;;;;;;2.03;1.02;;;;;;;;;;5032773;28;20344;-83
2022/05/31 02:24:32;;;;;;;1.77;1.27;;;;;;;;;;5022037;28;20038;-83
2022/05/31 02:26:58;;;;;;;2.17;1.52;;;;;;;;;;4992611;28;20049;-82
2022/05/31 02:29:26;;;;;;;3.38;1.30;;;;;;;;;;4993171;28;20026;-83
2022/05/31 02:31:52;;;;;;;3.65;1.60;;;;;;;;;;4994111;28;20029;-83
2022/05/31 02:34:20;;;;;;;3.45;1.45;;;;;;;;;;4993068;28;20037;-85
2022/05/31 02:36:47;;;;;;;3.20;1.48;;;;;;;;;;4991068;28;20078;-84
2022/05/31 02:39:13;;;;;;;2.03;1.55;;;;;;;;;;4991431;28;20030;-84
2022/05/31 02:41:39;;;;;;;4.22;2.20;;;;;;;;;;4992488;28;20257;-83
2022/05/31 02:44:06;;;;;;;3.13;1.70;;;;;;;;;;5011183;28;20411;-85
2022/05/31 02:46:32;;;;;;;3.17;1.70;;;;;;;;;;5031942;28;20021;-85
2022/05/31 02:49:00;;;;;;;6.50;1.38;;;;;;;;;;5030708;28;20065;-85
2022/05/31 02:51:26;;;;;;;1.73;1.33;;;;;;;;;;5024917;28;20105;-85
2022/05/31 02:53:52;;;;;;;1.52;1.42;;;;;;;;;;5014031;28;20022;-84
2022/05/31 02:56:18;;;;;;;1.45;1.35;;;;;;;;;;5026364;28;20391;-84
2022/05/31 02:58:44;;;;;;;4.35;1.45;;;;;;;;;;5023958;28;20112;-84
2022/05/31 03:01:22;;;;;;;1.65;1.40;;;;;;;;;;5012442;28;20037;-85
2022/05/31 03:03:48;;;;;;;1.52;1.38;;;;;;;;;;5026226;28;20071;-85
2022/05/31 03:06:14;;;;;;;3.25;1.70;;;;;;;;;;5032317;28;20060;-85
2022/05/31 03:08:40;;;;;;;2.45;1.50;;;;;;;;;;5031705;28;20029;-84
2022/05/31 03:11:08;;;;;;;3.35;1.65;;;;;;;;;;5027752;28;20497;-85
2022/05/31 03:13:34;;;;;;;1.80;1.50;;;;;;;;;;5012123;28;20042;-84
2022/05/31 03:16:02;;;;;;;2.22;1.63;;;;;;;;;;5011635;28;20033;-86
2022/05/31 03:18:34;;;;;;;2.55;1.63;;;;;;;;;;5011445;28;20018;-84
2022/05/31 03:21:04;;;;;;;4.88;1.88;;;;;;;;;;5022379;28;20022;-86
2022/05/31 03:23:34;;;;;;;4.07;1.58;;;;;;;;;;5019655;28;20439;-85
2022/05/31 03:26:02;;;;;;;3.28;1.75;;;;;;;;;;5020412;28;20364;-85
2022/05/31 03:28:28;;;;;;;4.40;1.63;;;;;;;;;;5031635;28;20030;-85
2022/05/31 03:30:55;;;;;;;1.77;1.67;;;;;;;;;;5031632;28;20240;-85
2022/05/31 03:33:21;;;;;;;1.75;1.65;;;;;;;;;;5017728;28;20443;-85
2022/05/31 03:35:47;;;;;;;1.65;1.50;;;;;;;;;;5011135;28;20076;-85
2022/05/31 03:38:13;;;;;;;2.55;1.60;;;;;;;;;;5011564;28;20029;-85
2022/05/31 03:40:58;;;;;;;4.82;2.08;;;;;;;;;;5014192;28;20021;-84
2022/05/31 03:43:28;;;;;;;2.50;1.50;;;;;;;;;;5030262;28;20053;-84
2022/05/31 03:45:54;;;;;;;4.30;2.03;;;;;;;;;;5031395;28;20095;-85
2022/05/31 03:48:21;;;;;;;3.65;1.70;;;;;;;;;;5031218;28;20108;-85
2022/05/31 03:50:57;;;;;;;2.70;2.10;;;;;;;;;;5030968;28;20025;-83
2022/05/31 03:53:23;;;;;;;5.18;1.90;;;;;;;;;;5030279;28;20018;-84
2022/05/31 03:55:49;;;;;;;2.05;1.85;;;;;;;;;;5032252;28;20112;-85
2022/05/31 03:58:15;;;;;;;5.82;2.25;;;;;;;;;;5027811;28;20029;-83
2022/05/31 04:00:41;;;;;;;4.40;1.88;;;;;;;;;;5012908;28;20029;-85
2022/05/31 04:03:07;;;;;;;2.80;1.73;;;;;;;;;;5014113;28;20113;-85
2022/05/31 04:05:33;;;;;;;5.38;2.08;;;;;;;;;;5014996;28;20026;-85
2022/05/31 04:08:06;;;;;;;3.38;1.95;;;;;;;;;;5015235;28;20045;-85
2022/05/31 04:10:33;;;;;;;2.35;1.83;;;;;;;;;;5015013;28;20089;-84
2022/05/31 04:12:59;;;;;;;2.63;1.90;;;;;;;;;;5015255;28;20546;-85
2022/05/31 04:15:25;;;;;;;1.98;1.80;;;;;;;;;;5012101;28;20111;-85
2022/05/31 04:17:51;;;;;;;5.70;1.98;;;;;;;;;;5014884;28;20018;-85
2022/05/31 04:20:17;;;;;;;3.40;1.85;;;;;;;;;;5030687;28;20615;-84
2022/05/31 04:22:43;;;;;;;1.98;1.80;;;;;;;;;;5033053;28;20034;-83
2022/05/31 04:25:09;;;;;;;3.90;1.70;;;;;;;;;;5018824;28;20034;-83
2022/05/31 04:27:35;;;;;;;2.97;2.28;;;;;;;;;;5014326;28;20089;-85
2022/05/31 04:30:01;;;;;;;2.47;1.88;;;;;;;;;;5008280;28;20030;-83
2022/05/31 04:32:27;;;;;;;3.15;1.70;;;;;;;;;;5014822;28;20025;-85
2022/05/31 04:34:53;;;;;;;2.65;1.80;;;;;;;;;;5034487;28;20045;-85
2022/05/31 04:37:20;;;;;;;6.05;2.08;;;;;;;;;;4994073;28;20030;-84
2022/05/31 04:39:46;;;;;;;2.20;2.10;;;;;;;;;;5007600;28;20068;-84
2022/05/31 04:42:12;;;;;;;2.03;1.83;;;;;;;;;;5026378;28;20021;-83
2022/05/31 04:44:38;;;;;;;2.30;1.70;;;;;;;;;;5034343;28;20559;-84
2022/05/31 04:47:05;;;;;;;2.28;1.77;;;;;;;;;;5032157;28;20613;-85
2022/05/31 04:49:31;;;;;;;2.80;1.95;;;;;;;;;;5033968;28;20073;-85
2022/05/31 04:51:57;;;;;;;5.70;2.00;;;;;;;;;;5033453;28;20401;-84
2022/05/31 04:54:24;;;;;;;4.22;1.70;;;;;;;;;;5034174;28;20112;-85
2022/05/31 04:56:52;;;;;;;3.22;2.08;;;;;;;;;;5017403;28;20998;-85
2022/05/31 04:59:19;;;;;;;3.20;1.90;;;;;;;;;;5011438;28;20049;-85
2022/05/31 05:01:45;;;;;;;2.33;1.80;;;;;;;;;;5013453;28;20092;-86
2022/05/31 05:04:11;;;;;;;3.13;1.90;;;;;;;;;;5026052;28;20029;-83
2022/05/31 05:06:37;;;;;;;1.77;1.30;;;;;;;;;;5031333;28;20030;-86
2022/05/31 05:09:04;;;;;;;2.15;1.63;;;;;;;;;;5032359;28;20029;-86
2022/05/31 05:11:32;;;;;;;3.85;1.63;;;;;;;;;;5018149;28;20562;-87
2022/05/31 05:13:58;;;;;;;2.10;1.42;;;;;;;;;;5026542;28;20463;-85
2022/05/31 05:16:24;;;;;;;2.88;1.60;;;;;;;;;;5018312;28;20171;-86
2022/05/31 05:18:50;;;;;;;2.58;1.88;;;;;;;;;;5009366;28;20038;-86
2022/05/31 05:21:17;;;;;;;1.73;1.55;;;;;;;;;;4992927;28;20058;-85
2022/05/31 05:23:43;;;;;;;3.15;1.60;;;;;;;;;;4992694;28;20030;-86
2022/05/31 05:26:09;;;;;;;4.50;1.40;;;;;;;;;;5013209;28;20034;-84
2022/05/31 05:31:26;;;;;;;2.55;1.70;;;;;;;;;;5001175;28;20507;-86
2022/05/31 05:33:52;;;;;;;1.63;1.40;;;;;;;;;;4998336;28;20118;-86
2022/05/31 05:36:18;;;;;;;2.72;1.58;;;;;;;;;;5010203;28;20094;-85
2022/05/31 05:38:44;;;;;;;3.17;1.60;;;;;;;;;;5013831;28;20030;-85
2022/05/31 05:41:10;;;;;;;2.30;1.30;;;;;;;;;;5007581;28;20110;-84
2022/05/31 05:43:36;;;;;;;4.13;1.38;;;;;;;;;;4992851;28;20045;-84
2022/05/31 05:46:03;;;;;;;2.30;1.40;;;;;;;;;;5002779;28;20035;-83
2022/05/31 05:48:29;;;;;;;5.50;1.48;;;;;;;;;;4994383;28;20041;-86
2022/05/31 05:50:55;;;;;;;3.35;1.45;;;;;;;;;;4992531;28;20018;-85
2022/05/31 05:53:21;;;;;;;1.55;1.15;;;;;;;;;;4994448;28;20033;-86
2022/05/31 05:55:47;;;;;;;5.28;1.45;;;;;;;;;;4994985;28;20021;-84
2022/05/31 05:58:13;;;;;;;1.67;1.17;;;;;;;;;;4993217;28;20026;-85
2022/05/31 06:00:50;;;;;;;2.88;1.45;;;;;;;;;;4990932;28;20126;-85
2022/05/31 06:03:22;;;;;;;2.50;1.27;;;;;;;;;;4994053;28;20576;-84
2022/05/31 06:05:48;;;;;;;1.40;1.15;;;;;;;;;;4993501;28;20555;-84
2022/05/31 06:08:20;;;;;;;1.50;1.35;;;;;;;;;;4992089;28;20050;-85
2022/05/31 06:10:54;;;;;;;5.22;1.23;;;;;;;;;;4992602;28;20014;-84
2022/05/31 06:13:29;;;;;;;2.28;1.50;;;;;;;;;;5026192;23;20121;-85
2022/05/31 06:15:56;;;;;;;3.47;1.42;;;;;;;;;;4969280;28;20031;-85
2022/05/31 06:18:23;;;;;;;1.67;1.23;;;;;;;;;;4964825;28;20101;-84
2022/05/31 06:20:52;;;;;;;2.28;1.20;;;;;;;;;;4976996;28;20053;-85
2022/05/31 06:23:19;;;;;;;3.88;1.27;;;;;;;;;;4957241;28;20034;-85
2022/05/31 06:25:45;;;;;;;3.33;1.60;;;;;;;;;;4957436;29;20114;-83
2022/05/31 06:28:11;;;;;;;1.50;1.25;;;;;;;;;;4957721;29;20041;-84
2022/05/31 06:30:37;;;;;;;2.97;1.23;;;;;;;;;;4966306;28;20401;-85
2022/05/31 06:33:04;;;;;;;1.17;1.05;;;;;;;;;;4975766;28;20023;-85
2022/05/31 06:35:30;;;;;;;1.48;1.15;;;;;;;;;;4975238;28;20030;-85
2022/05/31 06:37:56;;;;;;;2.95;1.88;;;;;;;;;;4975420;28;20493;-84
2022/05/31 06:40:22;;;;;;;6.32;1.55;;;;;;;;;;4974548;28;20034;-85
2022/05/31 06:42:49;;;;;;;2.22;1.35;;;;;;;;;;4973814;28;20034;-85
2022/05/31 06:45:15;;;;;;;1.65;1.33;;;;;;;;;;4976163;28;20117;-84
2022/05/31 06:47:41;;;;;;;4.07;1.38;;;;;;;;;;4966432;28;20110;-87
2022/05/31 06:50:07;;;;;;;1.35;1.00;;;;;;;;;;4964449;28;20446;-87
2022/05/31 06:58:03;;;;;;;4.80;1.33;;;;;;;;;;4966646;28;20062;-86
2022/05/31 07:00:29;;;;;;;3.88;1.20;;;;;;;;;;4957582;28;20299;-86
2022/05/31 07:02:56;;;;;;;3.28;1.23;;;;;;;;;;4959977;29;20058;-84
2022/05/31 07:05:22;;;;;;;1.73;1.30;;;;;;;;;;4956493;29;20059;-86
2022/05/31 07:07:48;;;;;;;2.70;1.20;;;;;;;;;;4958556;29;20035;-87
2022/05/31 07:10:15;;;;;;;4.38;1.08;;;;;;;;;;4954611;29;20027;-86
2022/05/31 07:12:42;;;;;;;4.03;1.20;;;;;;;;;;4967734;28;20026;-87
2022/05/31 07:15:17;;;;;;;1.50;1.02;;;;;;;;;;4970773;28;20023;-87
2022/05/31 07:17:51;;;;;;;2.83;1.33;;;;;;;;;;4970223;28;20014;-86
2022/05/31 07:20:30;;;;;;;2.58;1.02;;;;;;;;;;4972988;28;20078;-86
2022/05/31 07:23:13;;;;;;;4.25;1.35;;;;;;;;;;5021188;23;20147;-87
2022/05/31 07:25:51;;;;;;;1.35;1.25;;;;;;;;;;5001771;28;20090;-87
2022/05/31 07:28:20;;;;;;;10.93;1.50;;;;;;;;;;5003582;28;20519;-87
2022/05/31 07:30:52;;;;;;;4.70;1.33;;;;;;;;;;5001796;28;20022;-87
2022/05/31 07:33:35;;;;;;;4.00;1.15;;;;;;;;;;5013230;28;20115;-86
2022/05/31 07:36:03;;;;;;;2.33;1.40;;;;;;;;;;5023557;28;20021;-87
2022/05/31 07:38:29;;;;;;;2.75;1.40;;;;;;;;;;5021677;28;20022;-87
2022/05/31 07:41:01;;;;;;;3.17;1.40;;;;;;;;;;5023134;28;20026;-87
2022/05/31 07:43:27;;;;;;;;;;;;;;;;;;5023994;28;20496;-86
2022/05/31 07:46:13;;;;;;;2.25;1.60;;;;;;;;;;5022082;28;19916;-87
2022/05/31 07:48:59;;;;;;;4.15;1.10;;;;;;;;;;5023669;28;20137;-87
2022/05/31 07:51:41;;;;;;;2.85;1.20;;;;;;;;;;5019971;28;20041;-87
2022/05/31 07:54:17;;;;;;;3.78;1.30;;;;;;;;;;5007679;28;20034;-88
2022/05/31 07:56:48;;;;;;;2.35;1.10;;;;;;;;;;5009243;28;20037;-87
2022/05/31 07:59:15;;;;;;;2.58;1.10;;;;;;;;;;5008853;28;20026;-86
2022/05/31 08:01:46;;;;;;;2.97;1.13;;;;;;;;;;5008539;28;20017;-86
2022/05/31 08:04:21;;;;;;;1.27;1.17;;;;;;;;;;5004916;28;20038;-86
2022/05/31 08:06:57;;;;;;;;;;;;;;;;;;;;;
2022/05/31 08:09:27;;;;;;;2.38;1.08;;;;;;;;;;5002413;28;20114;-87
2022/05/31 08:12:00;;;;;;;4.38;1.15;;;;;;;;;;5002436;28;20030;-86
2022/05/31 08:14:29;;;;;;;1.80;1.30;;;;;;;;;;5000073;28;20030;-87
2022/05/31 08:16:58;;;;;;;2.58;1.25;;;;;;;;;;5000638;28;20018;-86
2022/05/31 08:19:27;;;;;;;3.15;1.13;;;;;;;;;;5010023;28;20030;-88
2022/05/31 08:21:53;;;;;;;4.88;1.35;;;;;;;;;;5011088;28;20034;-86
2022/05/31 08:24:36;;;;;;;7.00;1.10;;;;;;;;;;5000914;28;20098;-87
2022/05/31 08:27:07;;;;;;;3.53;1.27;;;;;;;;;;5000596;28;20646;-86
2022/05/31 08:29:39;;;;;;;2.13;1.25;;;;;;;;;;5002780;28;20062;-86
2022/05/31 08:32:11;;;;;;;2.72;1.23;;;;;;;;;;5000701;28;20030;-87
2022/05/31 08:34:51;;;;;;;2.88;1.85;;;;;;;;;;5000618;28;20018;-86
2022/05/31 08:37:20;;;;;;;2.58;1.25;;;;;;;;;;5002458;28;20049;-85
2022/05/31 08:39:46;;;;;;;3.47;1.30;;;;;;;;;;5003273;28;20031;-86
2022/05/31 08:42:17;;;;;;;5.55;1.20;;;;;;;;;;5000680;28;20037;-86
2022/05/31 08:45:00;;;;;;;4.78;1.20;;;;;;;;;;5003344;28;20073;-86
2022/05/31 08:47:36;;;;;;;1.80;1.35;;;;;;;;;;5000906;28;20034;-86
2022/05/31 08:53:30;;;;;;;2.25;1.05;;;;;;;;;;4967884;28;20049;-87
2022/05/31 08:59:07;;;;;;;3.05;1.00;;;;;;;;;;5001843;28;20065;-86
2022/05/31 09:01:48;;;;;;;1.33;1.00;;;;;;;;;;5002458;28;20035;-87
2022/05/31 09:04:44;;;;;;;3.60;0.98;;;;;;;;;;5001494;28;20113;-87
2022/05/31 09:07:22;;;;;;;0.70;0.70;;;;;;;;;;4991865;28;20443;-82
2022/05/31 09:10:04;;;;;;;2.20;1.20;;;;;;;;;;5001043;28;20046;-86
2022/05/31 09:12:49;;;;;;;2.20;1.10;;;;;;;;;;5006216;28;20029;-84
2022/05/31 09:15:18;;;;;;;2.20;1.20;;;;;;;;;;5015083;28;20034;-85
2022/05/31 09:18:04;;;;;;;5.63;1.10;;;;;;;;;;5018673;28;20022;-85
2022/05/31 09:20:49;;;;;;;1.80;1.00;;;;;;;;;;5019298;28;20033;-86
2022/05/31 09:23:19;;;;;;;3.20;1.05;;;;;;;;;;5011993;28;20595;-87
2022/05/31 09:25:46;;;;;;;2.63;0.98;;;;;;;;;;5018178;28;20151;-86
2022/05/31 09:28:36;;;;;;;1.77;0.90;;;;;;;;;;5017346;28;20118;-85
2022/05/31 09:31:06;;;;;;;2.50;0.90;;;;;;;;;;5012850;28;20408;-86
2022/05/31 09:33:38;;;;;;;2.67;1.02;;;;;;;;;;5000858;28;20033;-86
2022/05/31 09:36:12;;;;;;;2.03;1.17;;;;;;;;;;5001758;28;20050;-86
2022/05/31 09:38:38;;;;;;;1.30;0.90;;;;;;;;;;5016023;28;20032;-86
2022/05/31 09:41:22;;;;;;;2.17;1.00;;;;;;;;;;5017329;28;20441;-83
2022/05/31 09:44:01;;;;;;;6.50;1.23;;;;;;;;;;5015878;28;20030;-86
2022/05/31 09:46:38;;;;;;;3.33;1.05;;;;;;;;;;5016951;28;20044;-85
2022/05/31 09:49:31;;;;;;;1.73;0.80;;;;;;;;;;5014867;28;20034;-84
2022/05/31 09:51:57;;;;;;;4.07;1.13;;;;;;;;;;4997097;28;20034;-84
2022/05/31 09:57:14;;;;;;;1.73;0.88;;;;;;;;;;5007257;28;20084;-86
2022/05/31 09:59:46;;;;;;;4.80;0.90;;;;;;;;;;5013809;28;20037;-85
2022/05/31 10:02:33;;;;;;;2.92;1.02;;;;;;;;;;5016274;28;20037;-85
2022/05/31 10:05:25;;;;;;;1.45;0.88;;;;;;;;;;5015287;28;20733;-84
2022/05/31 10:07:51;;;;;;;1.42;1.05;;;;;;;;;;5011631;28;20100;-85
2022/05/31 10:10:24;;;;;;;2.45;1.02;;;;;;;;;;5013233;28;20022;-85
2022/05/31 10:12:54;;;;;;;1.63;0.80;;;;;;;;;;5013807;28;20097;-85
2022/05/31 10:15:32;;;;;;;2.30;1.00;;;;;;;;;;5013861;28;20364;-85
2022/05/31 10:18:04;;;;;;;1.15;0.80;;;;;;;;;;4995800;28;20081;-84
2022/05/31 10:20:30;;;;;;;1.20;0.77;;;;;;;;;;5012105;28;20030;-86
2022/05/31 10:22:56;;;;;;;2.85;0.90;;;;;;;;;;5013138;28;20503;-85
2022/05/31 10:25:22;;;;;;;1.88;0.93;;;;;;;;;;5014191;28;20234;-85
2022/05/31 10:27:48;;;;;;;6.82;1.95;;;;;;;;;;5012290;28;20064;-85
2022/05/31 10:30:20;;;;;;;1.58;0.85;;;;;;;;;;5013233;28;20033;-85
2022/05/31 10:32:51;;;;;;;2.25;0.80;;;;;;;;;;5014169;28;20048;-85
2022/05/31 10:35:19;;;;;;;1.52;1.27;;;;;;;;;;5014422;28;20037;-84
2022/05/31 10:37:59;;;;;;;1.23;0.90;;;;;;;;;;5015142;28;20026;-84
2022/05/31 10:40:31;;;;;;;1.23;0.70;;;;;;;;;;5015010;28;20033;-84
2022/05/31 10:42:59;;;;;;;2.10;0.80;;;;;;;;;;5014773;28;20500;-84
2022/05/31 10:45:27;;;;;;;1.23;0.95;;;;;;;;;;5014602;28;20021;-85
2022/05/31 10:47:55;;;;;;;1.85;0.90;;;;;;;;;;5013843;28;20034;-84
2022/05/31 10:50:23;;;;;;;3.80;0.98;;;;;;;;;;5012649;28;20138;-83
2022/05/31 10:52:58;;;;;;;1.92;0.93;;;;;;;;;;5009456;28;20025;-86
2022/05/31 10:55:34;;;;;;;1.20;0.73;;;;;;;;;;5000701;28;20076;-86
2022/05/31 10:58:18;;;;;;;2.53;1.45;;;;;;;;;;4999050;28;20488;-85
2022/05/31 11:00:56;;;;;;;2.17;1.00;;;;;;;;;;5002367;28;20030;-85
2022/05/31 11:03:25;;;;;;;1.10;1.00;;;;;;;;;;5008413;28;20057;-86
2022/05/31 11:05:57;;;;;;;0.95;0.63;;;;;;;;;;4994542;28;20041;-87
2022/05/31 11:11:39;;;;;;;2.38;0.80;;;;;;;;;;5001371;28;20041;-86
2022/05/31 11:14:08;;;;;;;1.83;0.90;;;;;;;;;;5003803;28;20018;-85
2022/05/31 11:16:47;;;;;;;2.42;0.98;;;;;;;;;;4997796;28;20018;-85
2022/05/31 11:19:14;;;;;;;0.88;0.88;;;;;;;;;;5014886;28;20036;-86
2022/05/31 11:21:40;;;;;;;2.05;1.05;;;;;;;;;;5005747;28;20026;-85
2022/05/31 11:24:21;;;;;;;2.17;0.88;;;;;;;;;;4999161;28;20030;-85
2022/05/31 11:27:08;;;;;;;4.85;1.38;;;;;;;;;;4997035;28;20027;-85
2022/05/31 11:29:50;;;;;;;3.38;1.13;;;;;;;;;;4995706;28;20470;-84
2022/05/31 11:32:20;;;;;;;1.20;0.70;;;;;;;;;;5013864;28;20487;-84
2022/05/31 11:34:58;;;;;;;7.35;1.30;;;;;;;;;;5014693;28;20022;-85
2022/05/31 11:37:24;;;;;;;2.28;0.93;;;;;;;;;;5013540;28;20077;-85
2022/05/31 11:40:05;;;;;;;3.67;0.90;;;;;;;;;;5013344;28;20440;-85
2022/05/31 11:42:31;;;;;;;1.95;0.93;;;;;;;;;;5012992;28;20026;-86
2022/05/31 11:45:00;;;;;;;1.85;0.90;;;;;;;;;;5014308;28;20029;-85
2022/05/31 11:47:30;;;;;;;0.90;0.80;;;;;;;;;;5012229;28;20090;-86
2022/05/31 11:50:09;;;;;;;3.80;1.10;;;;;;;;;;5012653;28;20338;-83
2022/05/31 11:52:37;;;;;;;1.92;0.90;;;;;;;;;;5013920;28;20030;-85
2022/05/31 11:55:31;;;;;;;1.05;0.93;;;;;;;;;;5014616;28;20022;-85
2022/05/31 11:58:00;;;;;;;3.97;0.88;;;;;;;;;;5010121;28;20023;-85
2022/05/31 12:00:29;;;;;;;1.35;0.70;;;;;;;;;;4995406;28;20033;-85
2022/05/31 12:03:05;;;;;;;2.50;0.90;;;;;;;;;;4994638;28;20144;-85
2022/05/31 12:05:33;;;;;;;3.10;1.10;;;;;;;;;;4993004;28;20088;-85
2022/05/31 12:08:02;;;;;;;0.70;0.70;;;;;;;;;;5006945;28;20124;-85
2022/05/31 12:10:30;;;;;;;2.35;0.90;;;;;;;;;;5013766;28;20075;-87
2022/05/31 12:12:57;;;;;;;2.65;1.45;;;;;;;;;;5002704;28;20053;-86
2022/05/31 12:15:24;;;;;;;2.53;1.05;;;;;;;;;;5013535;28;20033;-87
2022/05/31 12:17:53;;;;;;;7.85;1.50;;;;;;;;;;5003618;28;20018;-87
2022/05/31 12:20:24;;;;;;;3.60;1.10;;;;;;;;;;5036358;23;20125;-84
2022/05/31 12:23:08;;;;;;;3.00;1.20;;;;;;;;;;4987315;28;20030;-86
2022/05/31 12:25:37;;;;;;;2.63;1.08;;;;;;;;;;4996117;28;20031;-85
2022/05/31 12:28:12;;;;;;;2.88;1.00;;;;;;;;;;4995627;28;20077;-84
2022/05/31 12:30:46;;;;;;;1.63;1.20;;;;;;;;;;4979331;28;20114;-85
2022/05/31 12:33:43;;;;;;;4.65;1.10;;;;;;;;;;4956384;28;20037;-85
2022/05/31 12:36:09;;;;;;;5.00;0.77;;;;;;;;;;4944109;28;20038;-85
2022/05/31 12:38:54;;;;;;;4.53;1.17;;;;;;;;;;4990418;28;20110;-85
2022/05/31 12:41:33;;;;;;;1.70;1.02;;;;;;;;;;4993583;28;20113;-86
2022/05/31 12:44:00;;;;;;;4.05;1.02;;;;;;;;;;4991929;28;20022;-86
2022/05/31 12:46:45;;;;;;;2.58;1.20;;;;;;;;;;4975523;28;20226;-86
2022/05/31 12:49:32;;;;;;;1.55;1.00;;;;;;;;;;4975810;28;20141;-84
2022/05/31 12:54:53;;;;;;;5.88;1.10;;;;;;;;;;4973413;28;20018;-83
2022/05/31 12:57:22;;;;;;;2.65;0.90;;;;;;;;;;4985370;28;20027;-83
2022/05/31 12:59:49;;;;;;;1.88;1.02;;;;;;;;;;4973105;28;20035;-84
2022/05/31 13:02:23;;;;;;;3.30;0.98;;;;;;;;;;4975229;28;20094;-84
2022/05/31 13:04:55;;;;;;;5.45;1.10;;;;;;;;;;4968669;28;20039;-85
2022/05/31 13:07:22;;;;;;;3.40;1.00;;;;;;;;;;4954940;29;20056;-84
2022/05/31 13:09:48;;;;;;;1.77;1.02;;;;;;;;;;4955962;28;20106;-87
2022/05/31 13:20:59;;;;;;;3.97;1.02;;;;;;;;;;4961644;29;20103;-88
2022/05/31 13:23:28;;;;;;;4.85;1.88;;;;;;;;;;4956260;29;20469;-88
2022/05/31 13:26:00;;;;;;;11.02;1.00;;;;;;;;;;4970776;28;20045;-89
2022/05/31 13:28:37;;;;;;;5.07;1.10;;;;;;;;;;4976867;28;20113;-88
2022/05/31 13:31:04;;;;;;;2.00;0.88;;;;;;;;;;4980369;28;20031;-89
2022/05/31 13:33:31;;;;;;;4.00;1.17;;;;;;;;;;4955411;28;20405;-88
2022/05/31 13:36:17;;;;;;;4.63;0.85;;;;;;;;;;4955715;28;20030;-87
2022/05/31 13:38:45;;;;;;;5.38;0.90;;;;;;;;;;4975378;28;20034;-87
2022/05/31 13:41:12;;;;;;;2.38;0.98;;;;;;;;;;4974627;28;20031;-86
2022/05/31 13:43:48;;;;;;;4.97;0.90;;;;;;;;;;4966214;28;20039;-86
2022/05/31 13:46:14;;;;;;;3.42;1.10;;;;;;;;;;4956350;28;20034;-86
2022/05/31 13:48:40;;;;;;;2.40;0.93;;;;;;;;;;4955275;28;20035;-88
2022/05/31 13:51:10;;;;;;;4.57;1.80;;;;;;;;;;4974192;28;20157;-86
2022/05/31 13:53:43;;;;;;;5.00;0.95;;;;;;;;;;4967866;28;20027;-86
2022/05/31 13:56:14;;;;;;;6.43;1.70;;;;;;;;;;4955459;28;20494;-89
2022/05/31 13:58:40;;;;;;;;;;;;;;;;;;4965905;28;20118;-86
2022/05/31 14:01:26;;;;;;;3.00;1.02;;;;;;;;;;4954729;28;20335;-87
2022/05/31 14:03:53;;;;;;;1.20;0.77;;;;;;;;;;4963318;28;20826;-86
2022/05/31 14:06:20;;;;;;;3.63;0.95;;;;;;;;;;4962794;28;20050;-87
2022/05/31 14:08:46;;;;;;;1.33;0.90;;;;;;;;;;4965711;28;20023;-88
2022/05/31 14:11:18;;;;;;;4.78;1.23;;;;;;;;;;4965719;28;20118;-86
2022/05/31 14:13:46;;;;;;;2.25;0.90;;;;;;;;;;4966443;28;20035;-87
2022/05/31 14:16:15;;;;;;;3.00;1.10;;;;;;;;;;4963859;28;20324;-87
2022/05/31 14:18:43;;;;;;;2.42;1.25;;;;;;;;;;4964561;28;20022;-88
2022/05/31 14:21:09;;;;;;;0.70;0.70;;;;;;;;;;4962914;28;20075;-84
2022/05/31 14:23:36;;;;;;;3.47;0.90;;;;;;;;;;4962904;28;20038;-85
2022/05/31 14:26:04;;;;;;;3.92;1.30;;;;;;;;;;4953409;29;20027;-87
2022/05/31 14:28:30;;;;;;;3.38;1.10;;;;;;;;;;4961175;28;20705;-85
2022/05/31 14:30:57;;;;;;;2.50;1.25;;;;;;;;;;4993324;28;20030;-85
2022/05/31 14:33:28;;;;;;;1.80;0.80;;;;;;;;;;4984256;28;20027;-87
2022/05/31 14:35:56;;;;;;;2.83;1.10;;;;;;;;;;4961451;28;20026;-86
2022/05/31 14:38:28;;;;;;;2.05;1.00;;;;;;;;;;4955088;28;20015;-83
2022/05/31 14:40:54;;;;;;;2.80;1.20;;;;;;;;;;4960329;28;20397;-87
2022/05/31 14:43:29;;;;;;;2.00;0.98;;;;;;;;;;4956971;28;20393;-89
2022/05/31 14:45:58;;;;;;;1.13;0.80;;;;;;;;;;4955585;28;20027;-87
2022/05/31 14:48:36;;;;;;;5.75;1.10;;;;;;;;;;4956306;28;20499;-86
2022/05/31 14:51:09;;;;;;;3.03;0.90;;;;;;;;;;4954432;29;20078;-85
2022/05/31 14:53:37;;;;;;;3.88;1.00;;;;;;;;;;4955199;28;20027;-87
2022/05/31 14:56:03;;;;;;;1.75;0.85;;;;;;;;;;4958975;28;20066;-87
2022/05/31 14:58:40;;;;;;;3.10;0.95;;;;;;;;;;4967564;28;20038;-86
2022/05/31 15:01:32;;;;;;;2.63;0.90;;;;;;;;;;4973867;28;20392;-86
2022/05/31 15:03:58;;;;;;;1.75;0.93;;;;;;;;;;4953488;29;20496;-84
2022/05/31 15:06:26;;;;;;;1.42;0.90;;;;;;;;;;4954846;28;20114;-85
2022/05/31 15:09:03;;;;;;;3.83;1.30;;;;;;;;;;4958200;28;20074;-85
2022/05/31 15:19:49;;;;;;;3.15;1.30;;;;;;;;;;4949632;28;20023;-86
2022/05/31 15:22:18;;;;;;;2.38;1.17;;;;;;;;;;4967067;28;20031;-86
2022/05/31 15:24:52;;;;;;;5.90;1.10;;;;;;;;;;4972419;28;20118;-87
2022/05/31 15:27:21;;;;;;;3.35;0.80;;;;;;;;;;4959297;28;20082;-86
2022/05/31 15:29:47;;;;;;;2.88;1.23;;;;;;;;;;4953170;28;20027;-86
2022/05/31 15:32:13;;;;;;;2.03;1.23;;;;;;;;;;4964860;28;20635;-86
2022/05/31 15:34:39;;;;;;;2.70;1.10;;;;;;;;;;4972513;28;20456;-84
2022/05/31 15:37:06;;;;;;;3.85;1.52;;;;;;;;;;4973855;28;20097;-84
2022/05/31 15:39:33;;;;;;;3.95;1.70;;;;;;;;;;4973581;28;20473;-86
2022/05/31 15:41:59;;;;;;;2.15;1.10;;;;;;;;;;4973154;28;20038;-86
2022/05/31 15:44:25;;;;;;;1.83;1.20;;;;;;;;;;4972339;28;20027;-84